Elizabeth, Indiana
Current Conditions -  °F | °C
As of 3:56 PM on Sunday 21 Dec 2014 (Local Time) from KSDF Reporting Station
Broken Clouds Broken Clouds  
Wind Chill: 40°   Ceiling: 24000
Heat Index: 44°   Visibility: 9mi
Dew Point: 29°   Wind: 8mph
Humidity: 55%   Direction: 50°NE
Pressure: 30.15"   Gusts: NA
Location:  38.12°N, 85.97°W
Report Text: KSDF 212056Z 05007KT 9SM FEW200 BKN240 07/M02 A3015 RMK AO2 SLP213 T00671017 56024
Loading
Personal Weather Stations






























Interactive Weather Map New forecast layout! Learn more

10-Day Weather Forecast

Advertisements
Track Severe Weather on mobile